sensor_id;sensor_type;location;lat;lon;timestamp;temperature;humidity
34833;DHT22;55941;50.800;4.342;2022-10-31T00:00:47;14.90;99.90
34833;DHT22;55941;50.800;4.342;2022-10-31T00:03:12;14.80;99.90
34833;DHT22;55941;50.800;4.342;2022-10-31T00:05:45;14.70;99.90
34833;DHT22;55941;50.800;4.342;2022-10-31T00:08:10;14.70;99.90
34833;DHT22;55941;50.800;4.342;2022-10-31T00:10:39;14.60;99.90
34833;DHT22;55941;50.800;4.342;2022-10-31T00:13:06;14.50;99.90
34833;DHT22;55941;50.800;4.342;2022-10-31T00:15:35;14.50;99.90
34833;DHT22;55941;50.800;4.342;2022-10-31T00:18:01;14.50;99.90
34833;DHT22;55941;50.800;4.342;2022-10-31T00:20:26;14.50;99.90
34833;DHT22;55941;50.800;4.342;2022-10-31T00:22:52;14.50;99.90
34833;DHT22;55941;50.800;4.342;2022-10-31T00:25:17;14.40;99.90
34833;DHT22;55941;50.800;4.342;2022-10-31T00:27:43;14.40;99.90
34833;DHT22;55941;50.800;4.342;2022-10-31T00:30:08;14.40;99.90
34833;DHT22;55941;50.800;4.342;2022-10-31T00:32:34;14.30;99.90
34833;DHT22;55941;50.800;4.342;2022-10-31T00:34:59;14.40;99.90
34833;DHT22;55941;50.800;4.342;2022-10-31T00:37:26;14.40;99.90
34833;DHT22;55941;50.800;4.342;2022-10-31T00:39:51;14.30;99.90
34833;DHT22;55941;50.800;4.342;2022-10-31T00:42:17;14.30;99.90
34833;DHT22;55941;50.800;4.342;2022-10-31T00:44:42;14.20;99.90
34833;DHT22;55941;50.800;4.342;2022-10-31T00:47:08;14.10;99.90
34833;DHT22;55941;50.800;4.342;2022-10-31T00:49:33;14.10;99.90
34833;DHT22;55941;50.800;4.342;2022-10-31T00:51:59;14.10;99.90
34833;DHT22;55941;50.800;4.342;2022-10-31T00:54:25;14.10;99.90
34833;DHT22;55941;50.800;4.342;2022-10-31T00:56:50;14.10;99.90
34833;DHT22;55941;50.800;4.342;2022-10-31T00:59:16;14.10;99.90
34833;DHT22;55941;50.800;4.342;2022-10-31T01:01:41;14.20;99.90
34833;DHT22;55941;50.800;4.342;2022-10-31T01:04:07;14.20;99.90
34833;DHT22;55941;50.800;4.342;2022-10-31T01:06:32;14.20;99.90
34833;DHT22;55941;50.800;4.342;2022-10-31T01:08:59;14.10;99.90
34833;DHT22;55941;50.800;4.342;2022-10-31T01:11:24;14.10;99.90
34833;DHT22;55941;50.800;4.342;2022-10-31T01:13:51;14.20;99.90
34833;DHT22;55941;50.800;4.342;2022-10-31T01:16:17;14.20;99.90
34833;DHT22;55941;50.800;4.342;2022-10-31T01:18:43;14.20;99.90
34833;DHT22;55941;50.800;4.342;2022-10-31T01:21:10;14.10;99.90
34833;DHT22;55941;50.800;4.342;2022-10-31T01:23:35;14.10;99.90
34833;DHT22;55941;50.800;4.342;2022-10-31T01:26:11;14.10;99.90
34833;DHT22;55941;50.800;4.342;2022-10-31T01:28:38;14.10;99.90
34833;DHT22;55941;50.800;4.342;2022-10-31T01:31:06;14.10;99.90
34833;DHT22;55941;50.800;4.342;2022-10-31T01:33:32;14.10;99.90
34833;DHT22;55941;50.800;4.342;2022-10-31T01:35:57;14.10;99.90
34833;DHT22;55941;50.800;4.342;2022-10-31T01:38:23;14.10;99.90
34833;DHT22;55941;50.800;4.342;2022-10-31T01:40:49;14.00;99.90
34833;DHT22;55941;50.800;4.342;2022-10-31T01:43:14;14.00;99.90
34833;DHT22;55941;50.800;4.342;2022-10-31T01:45:40;14.00;99.90
34833;DHT22;55941;50.800;4.342;2022-10-31T01:48:10;14.00;99.90
34833;DHT22;55941;50.800;4.342;2022-10-31T01:50:37;13.90;99.90
34833;DHT22;55941;50.800;4.342;2022-10-31T01:53:03;13.90;99.90
34833;DHT22;55941;50.800;4.342;2022-10-31T01:55:34;13.80;99.90
34833;DHT22;55941;50.800;4.342;2022-10-31T01:58:04;13.80;99.90
34833;DHT22;55941;50.800;4.342;2022-10-31T02:00:31;13.70;99.90
34833;DHT22;55941;50.800;4.342;2022-10-31T02:02:57;13.60;99.90
34833;DHT22;55941;50.800;4.342;2022-10-31T02:05:25;13.60;99.90
34833;DHT22;55941;50.800;4.342;2022-10-31T02:08:02;13.50;99.90
34833;DHT22;55941;50.800;4.342;2022-10-31T02:10:33;13.50;99.90
34833;DHT22;55941;50.800;4.342;2022-10-31T02:12:59;13.40;99.90
34833;DHT22;55941;50.800;4.342;2022-10-31T02:15:26;13.40;99.90
34833;DHT22;55941;50.800;4.342;2022-10-31T02:17:53;13.30;99.90
34833;DHT22;55941;50.800;4.342;2022-10-31T02:20:19;13.40;99.90
34833;DHT22;55941;50.800;4.342;2022-10-31T02:23:06;13.30;99.90
34833;DHT22;55941;50.800;4.342;2022-10-31T02:30:40;13.30;99.90
34833;DHT22;55941;50.800;4.342;2022-10-31T02:35:55;13.10;99.90
34833;DHT22;55941;50.800;4.342;2022-10-31T02:38:38;13.00;99.90
34833;DHT22;55941;50.800;4.342;2022-10-31T02:43:44;13.00;99.90
34833;DHT22;55941;50.800;4.342;2022-10-31T02:48:51;13.00;99.90
34833;DHT22;55941;50.800;4.342;2022-10-31T02:51:18;12.90;99.90
34833;DHT22;55941;50.800;4.342;2022-10-31T02:53:44;12.90;99.90
34833;DHT22;55941;50.800;4.342;2022-10-31T02:56:14;12.80;99.90
34833;DHT22;55941;50.800;4.342;2022-10-31T02:58:42;12.90;99.90
34833;DHT22;55941;50.800;4.342;2022-10-31T03:01:27;12.90;99.90
34833;DHT22;55941;50.800;4.342;2022-10-31T03:06:44;12.80;99.90
34833;DHT22;55941;50.800;4.342;2022-10-31T03:09:13;12.80;99.90
34833;DHT22;55941;50.800;4.342;2022-10-31T03:11:48;12.90;99.90
34833;DHT22;55941;50.800;4.342;2022-10-31T03:14:20;12.80;99.90
34833;DHT22;55941;50.800;4.342;2022-10-31T03:16:47;12.70;99.90
34833;DHT22;55941;50.800;4.342;2022-10-31T03:21:45;12.70;99.90
34833;DHT22;55941;50.800;4.342;2022-10-31T03:24:11;12.70;99.90
34833;DHT22;55941;50.800;4.342;2022-10-31T03:26:38;12.60;99.90
34833;DHT22;55941;50.800;4.342;2022-10-31T03:29:06;12.50;99.90
34833;DHT22;55941;50.800;4.342;2022-10-31T03:31:33;12.50;99.90
34833;DHT22;55941;50.800;4.342;2022-10-31T03:34:00;12.50;99.90
34833;DHT22;55941;50.800;4.342;2022-10-31T03:36:28;12.50;99.90
34833;DHT22;55941;50.800;4.342;2022-10-31T03:38:55;12.50;99.90
34833;DHT22;55941;50.800;4.342;2022-10-31T03:41:23;12.50;99.90
34833;DHT22;55941;50.800;4.342;2022-10-31T03:43:57;12.60;99.90
34833;DHT22;55941;50.800;4.342;2022-10-31T03:46:24;12.50;99.90
34833;DHT22;55941;50.800;4.342;2022-10-31T03:48:50;12.40;99.90
34833;DHT22;55941;50.800;4.342;2022-10-31T03:51:23;12.40;99.90
34833;DHT22;55941;50.800;4.342;2022-10-31T03:53:52;12.50;99.90
34833;DHT22;55941;50.800;4.342;2022-10-31T04:01:20;12.30;99.90
34833;DHT22;55941;50.800;4.342;2022-10-31T04:03:46;12.30;99.90
34833;DHT22;55941;50.800;4.342;2022-10-31T04:06:13;12.40;99.90
34833;DHT22;55941;50.800;4.342;2022-10-31T04:08:42;12.20;99.90
34833;DHT22;55941;50.800;4.342;2022-10-31T04:11:08;12.20;99.90
34833;DHT22;55941;50.800;4.342;2022-10-31T04:13:35;12.20;99.90
34833;DHT22;55941;50.800;4.342;2022-10-31T04:16:02;12.10;99.90
34833;DHT22;55941;50.800;4.342;2022-10-31T04:18:28;12.20;99.90
34833;DHT22;55941;50.800;4.342;2022-10-31T04:21:04;12.10;99.90
34833;DHT22;55941;50.800;4.342;2022-10-31T04:23:30;12.10;99.90
34833;DHT22;55941;50.800;4.342;2022-10-31T04:25:56;12.10;99.90
34833;DHT22;55941;50.800;4.342;2022-10-31T04:28:21;12.00;99.90
34833;DHT22;55941;50.800;4.342;2022-10-31T04:30:47;12.10;99.90
34833;DHT22;55941;50.800;4.342;2022-10-31T04:33:12;12.00;99.90
34833;DHT22;55941;50.800;4.342;2022-10-31T04:35:38;12.10;99.90
34833;DHT22;55941;50.800;4.342;2022-10-31T04:38:05;12.10;99.90
34833;DHT22;55941;50.800;4.342;2022-10-31T04:40:30;12.10;99.90
34833;DHT22;55941;50.800;4.342;2022-10-31T04:42:56;12.20;99.90
34833;DHT22;55941;50.800;4.342;2022-10-31T04:45:22;12.20;99.90
34833;DHT22;55941;50.800;4.342;2022-10-31T04:47:47;12.20;99.90
34833;DHT22;55941;50.800;4.342;2022-10-31T04:50:13;12.30;99.90
34833;DHT22;55941;50.800;4.342;2022-10-31T04:52:39;12.30;99.90
34833;DHT22;55941;50.800;4.342;2022-10-31T04:55:05;12.30;99.90
34833;DHT22;55941;50.800;4.342;2022-10-31T04:57:31;12.20;99.90
34833;DHT22;55941;50.800;4.342;2022-10-31T04:59:56;12.20;99.90
34833;DHT22;55941;50.800;4.342;2022-10-31T05:02:22;12.30;99.90
34833;DHT22;55941;50.800;4.342;2022-10-31T05:04:47;12.20;99.90
34833;DHT22;55941;50.800;4.342;2022-10-31T05:07:13;12.30;99.90
34833;DHT22;55941;50.800;4.342;2022-10-31T05:09:38;12.30;99.90
34833;DHT22;55941;50.800;4.342;2022-10-31T05:12:04;12.40;99.90
34833;DHT22;55941;50.800;4.342;2022-10-31T05:14:29;12.40;99.90
34833;DHT22;55941;50.800;4.342;2022-10-31T05:16:55;12.40;99.90
34833;DHT22;55941;50.800;4.342;2022-10-31T05:19:20;12.40;99.90
34833;DHT22;55941;50.800;4.342;2022-10-31T05:21:46;12.50;99.90
34833;DHT22;55941;50.800;4.342;2022-10-31T05:24:12;12.50;99.90
34833;DHT22;55941;50.800;4.342;2022-10-31T05:26:37;12.50;99.90
34833;DHT22;55941;50.800;4.342;2022-10-31T05:29:04;12.50;99.90
34833;DHT22;55941;50.800;4.342;2022-10-31T05:31:29;12.50;99.90
34833;DHT22;55941;50.800;4.342;2022-10-31T05:33:55;12.50;99.90
34833;DHT22;55941;50.800;4.342;2022-10-31T05:36:21;12.50;99.90
34833;DHT22;55941;50.800;4.342;2022-10-31T05:38:46;12.50;99.90
34833;DHT22;55941;50.800;4.342;2022-10-31T05:41:12;12.50;99.90
34833;DHT22;55941;50.800;4.342;2022-10-31T05:43:37;12.50;99.90
34833;DHT22;55941;50.800;4.342;2022-10-31T05:46:03;12.50;99.90
34833;DHT22;55941;50.800;4.342;2022-10-31T05:48:29;12.50;99.90
34833;DHT22;55941;50.800;4.342;2022-10-31T05:50:54;12.60;99.90
34833;DHT22;55941;50.800;4.342;2022-10-31T05:53:20;12.70;99.90
34833;DHT22;55941;50.800;4.342;2022-10-31T05:55:46;12.70;99.90
34833;DHT22;55941;50.800;4.342;2022-10-31T05:58:11;12.70;99.90
34833;DHT22;55941;50.800;4.342;2022-10-31T06:00:37;12.80;99.90
34833;DHT22;55941;50.800;4.342;2022-10-31T06:03:03;12.80;99.90
34833;DHT22;55941;50.800;4.342;2022-10-31T06:05:29;12.80;99.90
34833;DHT22;55941;50.800;4.342;2022-10-31T06:07:55;12.90;99.90
34833;DHT22;55941;50.800;4.342;2022-10-31T06:10:21;13.00;99.90
34833;DHT22;55941;50.800;4.342;2022-10-31T06:12:47;12.90;99.90
34833;DHT22;55941;50.800;4.342;2022-10-31T06:15:13;12.90;99.90
34833;DHT22;55941;50.800;4.342;2022-10-31T06:17:39;12.90;99.90
34833;DHT22;55941;50.800;4.342;2022-10-31T06:20:04;13.00;99.90
34833;DHT22;55941;50.800;4.342;2022-10-31T06:22:30;13.00;99.90
34833;DHT22;55941;50.800;4.342;2022-10-31T06:24:56;13.00;99.90
34833;DHT22;55941;50.800;4.342;2022-10-31T06:27:22;13.00;99.90
34833;DHT22;55941;50.800;4.342;2022-10-31T06:29:48;13.20;99.90
34833;DHT22;55941;50.800;4.342;2022-10-31T06:32:14;13.20;99.90
34833;DHT22;55941;50.800;4.342;2022-10-31T06:34:40;13.20;99.90
34833;DHT22;55941;50.800;4.342;2022-10-31T06:37:09;13.10;99.90
34833;DHT22;55941;50.800;4.342;2022-10-31T06:39:35;13.10;99.90
34833;DHT22;55941;50.800;4.342;2022-10-31T06:42:01;13.10;99.90
34833;DHT22;55941;50.800;4.342;2022-10-31T06:44:27;13.20;99.90
34833;DHT22;55941;50.800;4.342;2022-10-31T06:46:53;13.20;99.90
34833;DHT22;55941;50.800;4.342;2022-10-31T06:49:18;13.30;99.90
34833;DHT22;55941;50.800;4.342;2022-10-31T06:51:46;13.30;99.90
34833;DHT22;55941;50.800;4.342;2022-10-31T06:54:12;13.30;99.90
34833;DHT22;55941;50.800;4.342;2022-10-31T06:56:38;13.40;99.90
34833;DHT22;55941;50.800;4.342;2022-10-31T06:59:04;13.40;99.90
34833;DHT22;55941;50.800;4.342;2022-10-31T07:01:29;13.40;99.90
34833;DHT22;55941;50.800;4.342;2022-10-31T07:03:55;13.40;99.90
34833;DHT22;55941;50.800;4.342;2022-10-31T07:06:20;13.50;99.90
34833;DHT22;55941;50.800;4.342;2022-10-31T07:08:46;13.50;99.90
34833;DHT22;55941;50.800;4.342;2022-10-31T07:11:11;13.50;99.90
34833;DHT22;55941;50.800;4.342;2022-10-31T07:13:37;13.60;99.90
34833;DHT22;55941;50.800;4.342;2022-10-31T07:16:03;13.60;99.90
34833;DHT22;55941;50.800;4.342;2022-10-31T07:18:29;13.70;99.90
34833;DHT22;55941;50.800;4.342;2022-10-31T07:20:55;13.70;99.90
34833;DHT22;55941;50.800;4.342;2022-10-31T07:23:21;13.80;99.90
34833;DHT22;55941;50.800;4.342;2022-10-31T07:25:47;13.80;99.90
34833;DHT22;55941;50.800;4.342;2022-10-31T07:28:12;13.90;99.90
34833;DHT22;55941;50.800;4.342;2022-10-31T07:30:38;13.90;99.90
34833;DHT22;55941;50.800;4.342;2022-10-31T07:33:04;13.90;99.90
34833;DHT22;55941;50.800;4.342;2022-10-31T07:35:30;13.90;99.90
34833;DHT22;55941;50.800;4.342;2022-10-31T07:37:56;14.00;99.90
34833;DHT22;55941;50.800;4.342;2022-10-31T07:40:22;14.10;99.90
34833;DHT22;55941;50.800;4.342;2022-10-31T07:42:49;14.20;99.90
34833;DHT22;55941;50.800;4.342;2022-10-31T07:45:17;14.20;99.90
34833;DHT22;55941;50.800;4.342;2022-10-31T07:47:43;14.30;99.90
34833;DHT22;55941;50.800;4.342;2022-10-31T07:50:11;14.40;99.90
34833;DHT22;55941;50.800;4.342;2022-10-31T07:52:36;14.40;99.90
34833;DHT22;55941;50.800;4.342;2022-10-31T07:55:02;14.40;99.90
34833;DHT22;55941;50.800;4.342;2022-10-31T07:57:28;14.40;99.90
34833;DHT22;55941;50.800;4.342;2022-10-31T07:59:54;14.40;99.90
34833;DHT22;55941;50.800;4.342;2022-10-31T08:02:20;14.60;99.90
34833;DHT22;55941;50.800;4.342;2022-10-31T08:04:46;14.60;99.90
34833;DHT22;55941;50.800;4.342;2022-10-31T08:07:11;14.60;99.90
34833;DHT22;55941;50.800;4.342;2022-10-31T08:09:37;14.70;99.90
34833;DHT22;55941;50.800;4.342;2022-10-31T08:12:03;14.60;99.90
34833;DHT22;55941;50.800;4.342;2022-10-31T08:14:28;14.70;99.90
34833;DHT22;55941;50.800;4.342;2022-10-31T08:16:54;14.80;99.90
34833;DHT22;55941;50.800;4.342;2022-10-31T08:19:19;14.80;99.90
34833;DHT22;55941;50.800;4.342;2022-10-31T08:21:45;14.90;99.90
34833;DHT22;55941;50.800;4.342;2022-10-31T08:24:11;15.00;99.90
34833;DHT22;55941;50.800;4.342;2022-10-31T08:26:36;15.00;99.90
34833;DHT22;55941;50.800;4.342;2022-10-31T08:29:02;15.00;99.90
34833;DHT22;55941;50.800;4.342;2022-10-31T08:31:28;15.00;99.90
34833;DHT22;55941;50.800;4.342;2022-10-31T08:33:53;15.00;99.90
34833;DHT22;55941;50.800;4.342;2022-10-31T08:36:19;15.10;99.90
34833;DHT22;55941;50.800;4.342;2022-10-31T08:38:46;15.10;99.90
34833;DHT22;55941;50.800;4.342;2022-10-31T08:41:11;15.10;99.90
34833;DHT22;55941;50.800;4.342;2022-10-31T08:43:37;15.20;99.90
34833;DHT22;55941;50.800;4.342;2022-10-31T08:46:02;15.30;99.90
34833;DHT22;55941;50.800;4.342;2022-10-31T08:48:28;15.40;99.90
34833;DHT22;55941;50.800;4.342;2022-10-31T08:50:56;15.40;99.90
34833;DHT22;55941;50.800;4.342;2022-10-31T08:53:22;15.50;99.90
34833;DHT22;55941;50.800;4.342;2022-10-31T08:55:47;15.60;99.90
34833;DHT22;55941;50.800;4.342;2022-10-31T08:58:16;15.60;99.90
34833;DHT22;55941;50.800;4.342;2022-10-31T09:00:42;15.70;99.90
34833;DHT22;55941;50.800;4.342;2022-10-31T09:03:12;15.70;99.90
34833;DHT22;55941;50.800;4.342;2022-10-31T09:05:38;15.80;99.90
34833;DHT22;55941;50.800;4.342;2022-10-31T09:08:04;16.00;99.90
34833;DHT22;55941;50.800;4.342;2022-10-31T09:10:30;16.00;99.90
34833;DHT22;55941;50.800;4.342;2022-10-31T09:12:59;16.20;99.90
34833;DHT22;55941;50.800;4.342;2022-10-31T09:15:25;16.20;99.90
34833;DHT22;55941;50.800;4.342;2022-10-31T09:17:51;16.30;99.90
34833;DHT22;55941;50.800;4.342;2022-10-31T09:20:17;16.30;99.90
34833;DHT22;55941;50.800;4.342;2022-10-31T09:22:43;16.30;99.90
34833;DHT22;55941;50.800;4.342;2022-10-31T09:25:09;16.30;99.90
34833;DHT22;55941;50.800;4.342;2022-10-31T09:27:34;16.30;99.90
34833;DHT22;55941;50.800;4.342;2022-10-31T09:30:00;16.40;99.90
34833;DHT22;55941;50.800;4.342;2022-10-31T09:32:25;16.30;99.90
34833;DHT22;55941;50.800;4.342;2022-10-31T09:34:51;16.30;99.90
34833;DHT22;55941;50.800;4.342;2022-10-31T09:37:16;16.30;99.90
34833;DHT22;55941;50.800;4.342;2022-10-31T09:39:42;16.20;99.90
34833;DHT22;55941;50.800;4.342;2022-10-31T09:47:31;16.30;99.90
34833;DHT22;55941;50.800;4.342;2022-10-31T09:52:38;16.30;99.90
34833;DHT22;55941;50.800;4.342;2022-10-31T09:55:09;16.40;99.90
34833;DHT22;55941;50.800;4.342;2022-10-31T09:57:39;16.50;99.90
34833;DHT22;55941;50.800;4.342;2022-10-31T10:00:07;16.60;99.90
34833;DHT22;55941;50.800;4.342;2022-10-31T10:04:59;16.80;99.90
34833;DHT22;55941;50.800;4.342;2022-10-31T10:09:57;16.90;99.90
34833;DHT22;55941;50.800;4.342;2022-10-31T10:17:32;17.10;99.90
34833;DHT22;55941;50.800;4.342;2022-10-31T10:20:15;17.20;99.90
34833;DHT22;55941;50.800;4.342;2022-10-31T10:22:45;17.40;99.90
34833;DHT22;55941;50.800;4.342;2022-10-31T10:25:22;17.50;99.90
34833;DHT22;55941;50.800;4.342;2022-10-31T10:30:40;17.70;99.90
34833;DHT22;55941;50.800;4.342;2022-10-31T10:33:51;17.90;99.90
34833;DHT22;55941;50.800;4.342;2022-10-31T10:35:57;17.90;99.90
34833;DHT22;55941;50.800;4.342;2022-10-31T10:38:33;17.80;99.90
34833;DHT22;55941;50.800;4.342;2022-10-31T10:41:00;17.80;99.90
34833;DHT22;55941;50.800;4.342;2022-10-31T10:43:34;17.80;99.90
34833;DHT22;55941;50.800;4.342;2022-10-31T10:46:19;17.80;99.90
34833;DHT22;55941;50.800;4.342;2022-10-31T10:49:26;17.80;99.90
34833;DHT22;55941;50.800;4.342;2022-10-31T10:59:51;17.90;99.90
34833;DHT22;55941;50.800;4.342;2022-10-31T11:02:18;18.00;99.90
34833;DHT22;55941;50.800;4.342;2022-10-31T11:04:44;18.00;99.90
34833;DHT22;55941;50.800;4.342;2022-10-31T11:07:11;18.10;99.90
34833;DHT22;55941;50.800;4.342;2022-10-31T11:09:37;18.20;99.90
34833;DHT22;55941;50.800;4.342;2022-10-31T11:12:36;18.40;99.90
34833;DHT22;55941;50.800;4.342;2022-10-31T11:14:55;18.60;99.90
34833;DHT22;55941;50.800;4.342;2022-10-31T11:17:31;18.60;99.90
34833;DHT22;55941;50.800;4.342;2022-10-31T11:20:04;18.60;99.90
34833;DHT22;55941;50.800;4.342;2022-10-31T11:22:30;18.70;99.90
34833;DHT22;55941;50.800;4.342;2022-10-31T11:24:56;18.80;99.90
34833;DHT22;55941;50.800;4.342;2022-10-31T11:27:22;18.90;99.90
34833;DHT22;55941;50.800;4.342;2022-10-31T11:29:48;19.00;99.90
34833;DHT22;55941;50.800;4.342;2022-10-31T11:32:23;19.10;99.90
34833;DHT22;55941;50.800;4.342;2022-10-31T11:34:51;19.10;99.90
34833;DHT22;55941;50.800;4.342;2022-10-31T11:37:21;19.20;99.90
34833;DHT22;55941;50.800;4.342;2022-10-31T11:39:50;19.40;99.90
34833;DHT22;55941;50.800;4.342;2022-10-31T11:42:19;19.30;99.90
34833;DHT22;55941;50.800;4.342;2022-10-31T11:44:45;19.50;99.90
34833;DHT22;55941;50.800;4.342;2022-10-31T11:47:12;19.60;99.90
34833;DHT22;55941;50.800;4.342;2022-10-31T11:49:40;19.60;99.90
34833;DHT22;55941;50.800;4.342;2022-10-31T11:52:06;19.60;99.90
34833;DHT22;55941;50.800;4.342;2022-10-31T11:54:40;19.50;99.90
34833;DHT22;55941;50.800;4.342;2022-10-31T11:57:21;19.60;99.90
34833;DHT22;55941;50.800;4.342;2022-10-31T11:59:50;19.90;99.90
34833;DHT22;55941;50.800;4.342;2022-10-31T12:02:17;20.20;99.90
34833;DHT22;55941;50.800;4.342;2022-10-31T12:04:44;20.50;99.90
34833;DHT22;55941;50.800;4.342;2022-10-31T12:07:11;20.70;99.90
34833;DHT22;55941;50.800;4.342;2022-10-31T12:09:37;21.10;99.90
34833;DHT22;55941;50.800;4.342;2022-10-31T12:20:28;22.90;99.90
34833;DHT22;55941;50.800;4.342;2022-10-31T12:28:18;24.00;99.90
34833;DHT22;55941;50.800;4.342;2022-10-31T12:30:50;24.60;99.90
34833;DHT22;55941;50.800;4.342;2022-10-31T12:41:20;26.20;99.90
34833;DHT22;55941;50.800;4.342;2022-10-31T12:51:44;27.40;99.90
34833;DHT22;55941;50.800;4.342;2022-10-31T13:00:12;27.80;97.90
34833;DHT22;55941;50.800;4.342;2022-10-31T13:02:15;27.30;97.30
34833;DHT22;55941;50.800;4.342;2022-10-31T13:10:08;27.80;95.50
34833;DHT22;55941;50.800;4.342;2022-10-31T13:12:38;27.40;95.50
34833;DHT22;55941;50.800;4.342;2022-10-31T13:15:05;27.60;94.80
34833;DHT22;55941;50.800;4.342;2022-10-31T13:17:45;27.70;94.90
34833;DHT22;55941;50.800;4.342;2022-10-31T13:20:17;27.30;95.10
34833;DHT22;55941;50.800;4.342;2022-10-31T13:22:45;27.30;95.40
34833;DHT22;55941;50.800;4.342;2022-10-31T13:25:13;27.40;96.00
34833;DHT22;55941;50.800;4.342;2022-10-31T13:30:25;27.90;93.20
34833;DHT22;55941;50.800;4.342;2022-10-31T13:35:30;27.40;94.50
34833;DHT22;55941;50.800;4.342;2022-10-31T13:38:03;27.20;94.60
34833;DHT22;55941;50.800;4.342;2022-10-31T13:45:26;27.20;94.90
34833;DHT22;55941;50.800;4.342;2022-10-31T13:48:16;26.80;95.40
34833;DHT22;55941;50.800;4.342;2022-10-31T13:50:43;26.50;95.70
34833;DHT22;55941;50.800;4.342;2022-10-31T13:53:20;25.80;96.50
34833;DHT22;55941;50.800;4.342;2022-10-31T13:55:48;25.70;97.30
34833;DHT22;55941;50.800;4.342;2022-10-31T13:58:24;25.70;97.40
34833;DHT22;55941;50.800;4.342;2022-10-31T14:03:35;25.80;97.20
34833;DHT22;55941;50.800;4.342;2022-10-31T14:06:02;25.50;97.80
34833;DHT22;55941;50.800;4.342;2022-10-31T14:08:28;25.20;98.40
34833;DHT22;55941;50.800;4.342;2022-10-31T14:10:56;25.00;98.70
34833;DHT22;55941;50.800;4.342;2022-10-31T14:13:23;24.50;99.10
34833;DHT22;55941;50.800;4.342;2022-10-31T14:18:34;23.90;99.90
34833;DHT22;55941;50.800;4.342;2022-10-31T14:21:01;23.80;99.90
34833;DHT22;55941;50.800;4.342;2022-10-31T14:28:39;22.80;99.90
34833;DHT22;55941;50.800;4.342;2022-10-31T14:31:21;22.80;99.90
34833;DHT22;55941;50.800;4.342;2022-10-31T14:33:49;22.70;99.90
34833;DHT22;55941;50.800;4.342;2022-10-31T14:36:24;22.50;99.90
34833;DHT22;55941;50.800;4.342;2022-10-31T14:41:45;22.30;99.90
34833;DHT22;55941;50.800;4.342;2022-10-31T14:44:24;22.00;99.90
34833;DHT22;55941;50.800;4.342;2022-10-31T14:50:12;21.80;99.90
34833;DHT22;55941;50.800;4.342;2022-10-31T14:52:39;21.60;99.90
34833;DHT22;55941;50.800;4.342;2022-10-31T14:55:06;21.60;99.90
34833;DHT22;55941;50.800;4.342;2022-10-31T14:57:34;21.60;99.90
34833;DHT22;55941;50.800;4.342;2022-10-31T15:00:02;21.50;99.90
34833;DHT22;55941;50.800;4.342;2022-10-31T15:02:31;21.40;99.90
34833;DHT22;55941;50.800;4.342;2022-10-31T15:05:05;21.50;99.90
34833;DHT22;55941;50.800;4.342;2022-10-31T15:07:32;21.30;99.90
34833;DHT22;55941;50.800;4.342;2022-10-31T15:10:00;21.20;99.90
34833;DHT22;55941;50.800;4.342;2022-10-31T15:12:27;21.10;99.90
34833;DHT22;55941;50.800;4.342;2022-10-31T15:14:53;21.00;99.90
34833;DHT22;55941;50.800;4.342;2022-10-31T15:17:19;20.90;99.90
34833;DHT22;55941;50.800;4.342;2022-10-31T15:19:44;20.80;99.90
34833;DHT22;55941;50.800;4.342;2022-10-31T15:22:16;20.80;99.90
34833;DHT22;55941;50.800;4.342;2022-10-31T15:24:41;20.70;99.90
34833;DHT22;55941;50.800;4.342;2022-10-31T15:27:12;20.60;99.90
34833;DHT22;55941;50.800;4.342;2022-10-31T15:29:46;20.50;99.90
34833;DHT22;55941;50.800;4.342;2022-10-31T15:32:20;20.40;99.90
34833;DHT22;55941;50.800;4.342;2022-10-31T15:34:46;20.20;99.90
34833;DHT22;55941;50.800;4.342;2022-10-31T15:37:12;20.10;99.90
34833;DHT22;55941;50.800;4.342;2022-10-31T15:39:39;19.90;99.90
34833;DHT22;55941;50.800;4.342;2022-10-31T15:42:05;19.80;99.90
34833;DHT22;55941;50.800;4.342;2022-10-31T15:44:40;19.70;99.90
34833;DHT22;55941;50.800;4.342;2022-10-31T15:47:07;19.70;99.90
34833;DHT22;55941;50.800;4.342;2022-10-31T15:49:39;19.40;99.90
34833;DHT22;55941;50.800;4.342;2022-10-31T15:54:35;19.30;99.90
34833;DHT22;55941;50.800;4.342;2022-10-31T15:57:01;19.20;99.90
34833;DHT22;55941;50.800;4.342;2022-10-31T15:59:27;19.20;99.90
34833;DHT22;55941;50.800;4.342;2022-10-31T16:02:01;19.20;99.90
34833;DHT22;55941;50.800;4.342;2022-10-31T16:04:27;19.00;99.90
34833;DHT22;55941;50.800;4.342;2022-10-31T16:06:57;18.90;99.90
34833;DHT22;55941;50.800;4.342;2022-10-31T16:09:23;18.70;99.90
34833;DHT22;55941;50.800;4.342;2022-10-31T16:11:50;18.50;99.90
34833;DHT22;55941;50.800;4.342;2022-10-31T16:14:17;18.30;99.90
34833;DHT22;55941;50.800;4.342;2022-10-31T16:16:48;18.20;99.90
34833;DHT22;55941;50.800;4.342;2022-10-31T16:19:19;18.10;99.90
34833;DHT22;55941;50.800;4.342;2022-10-31T16:21:46;18.00;99.90
34833;DHT22;55941;50.800;4.342;2022-10-31T16:26:40;17.90;99.90
34833;DHT22;55941;50.800;4.342;2022-10-31T16:31:51;17.80;99.90
34833;DHT22;55941;50.800;4.342;2022-10-31T16:34:18;17.60;99.90
34833;DHT22;55941;50.800;4.342;2022-10-31T16:36:45;17.60;99.90
34833;DHT22;55941;50.800;4.342;2022-10-31T16:39:10;17.60;99.90
34833;DHT22;55941;50.800;4.342;2022-10-31T16:41:43;17.50;99.90
34833;DHT22;55941;50.800;4.342;2022-10-31T16:44:22;17.50;99.90
34833;DHT22;55941;50.800;4.342;2022-10-31T16:46:48;17.60;99.90
34833;DHT22;55941;50.800;4.342;2022-10-31T16:49:26;17.70;99.90
34833;DHT22;55941;50.800;4.342;2022-10-31T16:51:52;17.70;99.90
34833;DHT22;55941;50.800;4.342;2022-10-31T16:54:17;17.80;99.90
34833;DHT22;55941;50.800;4.342;2022-10-31T16:56:43;17.90;99.90
34833;DHT22;55941;50.800;4.342;2022-10-31T16:59:09;17.90;99.90
34833;DHT22;55941;50.800;4.342;2022-10-31T17:01:37;17.90;99.90
34833;DHT22;55941;50.800;4.342;2022-10-31T17:04:03;17.90;99.90
34833;DHT22;55941;50.800;4.342;2022-10-31T17:06:28;17.70;99.90
34833;DHT22;55941;50.800;4.342;2022-10-31T17:08:54;17.70;99.90
34833;DHT22;55941;50.800;4.342;2022-10-31T17:11:21;17.80;99.90
34833;DHT22;55941;50.800;4.342;2022-10-31T17:13:46;17.80;99.90
34833;DHT22;55941;50.800;4.342;2022-10-31T17:16:13;17.90;99.90
34833;DHT22;55941;50.800;4.342;2022-10-31T17:18:39;18.00;99.90
34833;DHT22;55941;50.800;4.342;2022-10-31T17:21:05;18.00;99.90
34833;DHT22;55941;50.800;4.342;2022-10-31T17:23:31;17.90;99.90
34833;DHT22;55941;50.800;4.342;2022-10-31T17:25:57;17.90;99.90
34833;DHT22;55941;50.800;4.342;2022-10-31T17:28:23;17.90;99.90
34833;DHT22;55941;50.800;4.342;2022-10-31T17:30:50;17.90;99.90
34833;DHT22;55941;50.800;4.342;2022-10-31T17:33:18;17.80;99.90
34833;DHT22;55941;50.800;4.342;2022-10-31T17:35:43;17.80;99.90
34833;DHT22;55941;50.800;4.342;2022-10-31T17:38:10;18.00;99.90
34833;DHT22;55941;50.800;4.342;2022-10-31T17:40:36;17.90;99.90